Time;durP1;ratioP1;P1;durP2;ratioP2;P2;SDS_P1;SDS_P2;PMS_P1;PMS_P2;Temp;Humidity;BMP_temperature;BMP_pressure;BME280_temperature;BME280_humidity;BME280_pressure;Samples;Min_cycle;Max_cycle;Signal;HPM_P1;HPM_P2
2023/08/16 00:01:13;;;;;;;9.70;8.70;;;;;;;19.65;74.41;97532.27;104929;1262;96146;-80
2023/08/16 00:03:40;;;;;;;12.80;9.00;;;;;;;19.63;74.44;97534.11;105020;1256;99642;-80
2023/08/16 00:06:10;;;;;;;11.70;9.40;;;;;;;19.59;74.54;97536.65;105120;1254;97285;-82
2023/08/16 00:08:37;;;;;;;9.90;8.80;;;;;;;19.55;74.78;97537.95;105181;1255;98429;-81
2023/08/16 00:11:04;;;;;;;14.20;8.50;;;;;;;19.50;74.55;97537.27;105285;1253;95867;-82
2023/08/16 00:13:34;;;;;;;10.70;8.90;;;;;;;19.49;74.75;97535.66;105256;1265;96094;-81
2023/08/16 00:16:02;;;;;;;9.90;8.70;;;;;;;19.52;74.73;97532.68;105249;1256;101392;-80
2023/08/16 00:18:29;;;;;;;9.90;8.50;;;;;;;19.51;74.58;97531.63;105131;1260;96237;-81
2023/08/16 00:20:55;;;;;;;10.50;9.20;;;;;;;19.49;74.64;97529.25;105514;1256;97172;-82
2023/08/16 00:23:22;;;;;;;10.00;8.50;;;;;;;19.48;74.62;97528.41;105349;1255;95826;-81
2023/08/16 00:25:48;;;;;;;9.60;8.70;;;;;;;19.44;74.48;97526.09;105255;1256;95766;-81
2023/08/16 00:28:14;;;;;;;12.10;9.20;;;;;;;19.36;74.67;97520.78;105347;1256;95822;-81
2023/08/16 00:30:41;;;;;;;10.30;8.80;;;;;;;19.36;74.75;97519.68;105182;1256;100721;-82
2023/08/16 00:33:07;;;;;;;9.40;8.30;;;;;;;19.33;74.79;97520.32;105084;1272;95855;-82
2023/08/16 00:35:33;;;;;;;9.60;8.60;;;;;;;19.28;75.04;97515.32;105323;1251;95848;-81
2023/08/16 00:38:00;;;;;;;10.30;8.70;;;;;;;19.22;75.05;97511.55;105506;1256;95992;-81
2023/08/16 00:40:26;;;;;;;9.70;8.80;;;;;;;19.23;75.27;97511.56;105397;1269;98770;-81
2023/08/16 00:42:52;;;;;;;9.40;8.30;;;;;;;19.25;75.04;97519.55;105342;1269;95802;-80
2023/08/16 00:45:19;;;;;;;9.90;8.60;;;;;;;19.25;74.92;97531.27;105281;1256;96120;-81
2023/08/16 00:47:45;;;;;;;10.10;9.00;;;;;;;19.25;74.96;97544.14;105250;1264;95845;-80
2023/08/16 00:50:11;;;;;;;10.30;8.10;;;;;;;19.24;74.92;97543.70;105117;1264;98455;-80
2023/08/16 00:52:39;;;;;;;10.70;8.60;;;;;;;19.24;75.02;97532.80;105133;1256;96414;-82
2023/08/16 00:55:06;;;;;;;9.50;8.50;;;;;;;19.23;75.06;97529.51;104865;1252;96757;-81
2023/08/16 00:57:32;;;;;;;9.60;8.70;;;;;;;19.18;75.06;97518.05;104940;1260;96000;-82
2023/08/16 00:59:59;;;;;;;9.60;8.50;;;;;;;19.06;75.15;97517.52;105235;1255;95919;-82
2023/08/16 01:02:25;;;;;;;9.20;8.30;;;;;;;18.92;75.50;97514.63;105229;1253;95829;-82
2023/08/16 01:04:52;;;;;;;11.10;9.10;;;;;;;18.80;75.93;97511.20;105129;1266;97103;-80
2023/08/16 01:07:18;;;;;;;11.70;9.40;;;;;;;18.71;76.04;97511.29;105280;1255;96261;-82
2023/08/16 01:09:45;;;;;;;13.60;9.60;;;;;;;18.63;76.34;97517.23;105291;1253;96786;-81
2023/08/16 01:12:31;;;;;;;14.80;9.60;;;;;;;18.57;76.64;97517.36;105182;1256;95823;-81
2023/08/16 01:15:18;;;;;;;13.50;9.60;;;;;;;18.53;76.76;97517.44;105132;1255;95819;-80
2023/08/16 01:17:46;;;;;;;12.00;9.40;;;;;;;18.56;76.91;97516.05;105216;1264;101617;-80
2023/08/16 01:20:14;;;;;;;11.20;9.50;;;;;;;18.61;76.71;97515.85;105321;1253;100147;-80
2023/08/16 01:23:07;;;;;;;10.10;8.80;;;;;;;18.66;76.79;97517.64;105312;1251;100712;-81
2023/08/16 01:25:44;;;;;;;11.70;9.30;;;;;;;18.68;76.81;97517.16;105757;1253;95810;-80
2023/08/16 01:28:11;;;;;;;9.90;8.80;;;;;;;18.68;76.58;97520.89;105730;1255;95845;-82
2023/08/16 01:30:39;;;;;;;12.10;9.10;;;;;;;18.68;76.60;97521.11;105324;1251;96783;-80
2023/08/16 01:33:08;;;;;;;13.10;8.90;;;;;;;18.68;76.54;97524.73;105364;1257;102266;-80
2023/08/16 01:35:36;;;;;;;12.60;9.10;;;;;;;18.69;76.44;97528.83;105152;1256;100468;-81
2023/08/16 01:38:04;;;;;;;10.80;9.30;;;;;;;18.68;76.17;97526.52;104955;1258;96125;-81
2023/08/16 01:41:02;;;;;;;9.90;8.90;;;;;;;18.68;76.23;97522.48;104866;1253;95896;-81
2023/08/16 01:43:31;;;;;;;12.40;9.80;;;;;;;18.68;76.10;97518.10;104925;1265;100115;-82
2023/08/16 01:45:59;;;;;;;11.60;8.90;;;;;;;18.67;76.19;97517.77;104972;1260;102138;-80
2023/08/16 01:48:28;;;;;;;11.60;8.90;;;;;;;18.64;76.39;97516.05;104744;1262;100867;-82
2023/08/16 01:50:54;;;;;;;10.00;8.30;;;;;;;18.61;76.45;97521.15;104610;1261;96213;-82
2023/08/16 01:53:20;;;;;;;10.80;9.70;;;;;;;18.57;76.38;97526.46;104730;1264;96823;-82
2023/08/16 01:55:47;;;;;;;11.80;9.60;;;;;;;18.54;76.65;97527.79;104730;1270;96018;-82
2023/08/16 01:58:13;;;;;;;10.60;9.50;;;;;;;18.55;76.89;97527.73;104785;1259;97429;-80
2023/08/16 02:00:40;;;;;;;10.80;9.70;;;;;;;18.54;76.99;97531.50;104698;1261;96179;-82
2023/08/16 02:03:06;;;;;;;11.60;9.40;;;;;;;18.49;76.95;97531.27;104687;1259;96982;-82
2023/08/16 02:05:32;;;;;;;11.50;9.40;;;;;;;18.46;77.01;97529.17;104674;1262;96544;-80
2023/08/16 02:07:59;;;;;;;9.90;8.90;;;;;;;18.49;77.08;97533.50;104788;1268;96029;-82
2023/08/16 02:10:25;;;;;;;11.20;9.90;;;;;;;18.46;77.05;97538.41;104733;1260;95986;-82
2023/08/16 02:12:51;;;;;;;11.00;9.40;;;;;;;18.38;77.24;97540.52;104744;1262;96103;-82
2023/08/16 02:15:18;;;;;;;10.80;9.70;;;;;;;18.31;77.26;97537.51;104742;1257;96769;-82
2023/08/16 02:17:44;;;;;;;10.40;9.30;;;;;;;18.31;77.32;97535.42;104720;1262;96017;-82
2023/08/16 02:20:12;;;;;;;11.70;9.40;;;;;;;18.22;77.23;97533.85;104868;1253;96098;-83
2023/08/16 02:22:39;;;;;;;10.50;9.30;;;;;;;18.18;77.33;97539.71;105193;1255;95885;-79
2023/08/16 02:25:06;;;;;;;12.30;9.30;;;;;;;18.18;77.32;97535.67;105234;1255;96812;-80
2023/08/16 02:27:33;;;;;;;10.40;9.30;;;;;;;18.18;77.53;97535.66;105287;1259;96179;-83
2023/08/16 02:29:59;;;;;;;10.50;9.10;;;;;;;18.17;77.28;97530.79;105151;1275;96533;-80
2023/08/16 02:32:26;;;;;;;13.10;9.10;;;;;;;18.20;77.36;97534.05;105188;1251;96582;-80
2023/08/16 02:34:52;;;;;;;10.50;9.40;;;;;;;18.21;77.25;97529.27;105133;1253;100743;-82
2023/08/16 02:37:19;;;;;;;10.80;9.20;;;;;;;18.20;77.41;97528.05;105231;1255;97865;-82
2023/08/16 02:39:45;;;;;;;13.00;9.90;;;;;;;18.16;77.08;97528.77;105100;1259;97894;-82
2023/08/16 02:42:12;;;;;;;12.60;9.70;;;;;;;18.12;77.42;97525.38;105433;1267;96630;-80
2023/08/16 02:44:38;;;;;;;10.70;9.60;;;;;;;18.10;77.22;97523.24;105399;1256;102168;-80
2023/08/16 02:47:04;;;;;;;11.20;9.40;;;;;;;18.09;77.28;97527.16;105366;1256;97843;-82
2023/08/16 02:49:31;;;;;;;13.90;10.60;;;;;;;18.00;77.37;97529.67;105088;1258;96541;-82
2023/08/16 02:51:57;;;;;;;12.90;10.20;;;;;;;17.86;77.59;97531.91;105387;1256;96758;-82
2023/08/16 02:54:23;;;;;;;10.60;9.50;;;;;;;17.80;77.68;97533.69;105378;1256;102971;-81
2023/08/16 02:56:49;;;;;;;13.60;10.20;;;;;;;17.81;77.89;97530.86;105270;1254;97465;-83
2023/08/16 02:59:16;;;;;;;13.40;10.70;;;;;;;17.80;77.96;97521.02;105093;1256;97856;-81
2023/08/16 03:01:42;;;;;;;11.10;9.60;;;;;;;17.85;78.11;97521.70;105154;1267;96541;-82
2023/08/16 03:04:09;;;;;;;11.10;9.80;;;;;;;17.80;77.92;97520.43;105052;1256;100887;-82
2023/08/16 03:06:36;;;;;;;11.70;10.10;;;;;;;17.75;78.00;97518.56;105134;1271;100414;-80
2023/08/16 03:09:03;;;;;;;12.90;9.70;;;;;;;17.75;78.15;97518.34;105214;1251;96537;-81
2023/08/16 03:11:30;;;;;;;13.30;10.00;;;;;;;17.74;77.98;97521.98;105250;1257;96740;-79
2023/08/16 03:13:56;;;;;;;10.00;9.00;;;;;;;17.73;78.06;97537.05;105251;1254;96659;-80
2023/08/16 03:16:22;;;;;;;14.00;9.70;;;;;;;17.71;78.07;97543.80;105301;1253;96621;-81
2023/08/16 03:18:48;;;;;;;9.90;9.00;;;;;;;17.67;78.02;97548.58;105286;1254;100679;-80
2023/08/16 03:21:15;;;;;;;11.00;9.00;;;;;;;17.65;77.90;97541.09;105256;1257;97202;-82
2023/08/16 03:23:41;;;;;;;10.80;9.70;;;;;;;17.65;78.03;97537.58;105193;1256;97458;-79
2023/08/16 03:26:07;;;;;;;13.20;9.80;;;;;;;17.65;77.95;97538.79;105129;1256;97846;-81
2023/08/16 03:28:33;;;;;;;13.40;10.40;;;;;;;17.54;78.00;97539.39;105051;1256;98784;-81
2023/08/16 03:31:00;;;;;;;12.40;10.50;;;;;;;17.47;78.23;97543.17;105207;1256;96572;-82
2023/08/16 03:33:26;;;;;;;13.00;10.20;;;;;;;17.41;78.30;97543.58;105190;1256;97170;-81
2023/08/16 03:35:53;;;;;;;11.70;10.50;;;;;;;17.39;78.47;97545.61;105418;1266;97589;-82
2023/08/16 03:38:19;;;;;;;11.60;10.40;;;;;;;17.41;78.64;97546.39;105156;1275;98245;-82
2023/08/16 03:40:45;;;;;;;15.40;10.10;;;;;;;17.42;78.51;97547.83;105191;1256;96532;-82
2023/08/16 03:43:11;;;;;;;13.60;10.40;;;;;;;17.43;78.47;97550.30;105221;1256;96764;-81
2023/08/16 03:45:39;;;;;;;13.90;11.10;;;;;;;17.45;78.51;97547.23;105375;1266;97561;-82
2023/08/16 03:48:05;;;;;;;12.30;11.00;;;;;;;17.47;78.39;97550.33;105185;1259;100719;-83
2023/08/16 03:50:32;;;;;;;15.70;11.70;;;;;;;17.47;78.50;97552.17;105237;1266;96660;-83
2023/08/16 03:52:58;;;;;;;12.20;10.90;;;;;;;17.45;78.56;97552.25;105389;1255;97881;-83
2023/08/16 03:55:24;;;;;;;12.60;11.00;;;;;;;17.44;78.50;97552.99;105305;1256;96541;-80
2023/08/16 03:57:51;;;;;;;14.20;10.70;;;;;;;17.43;78.27;97552.71;105180;1256;107582;-83
2023/08/16 04:00:17;;;;;;;12.70;11.40;;;;;;;17.44;78.38;97548.30;105167;1253;96893;-82
2023/08/16 04:02:43;;;;;;;14.20;11.60;;;;;;;17.42;78.51;97548.88;105244;1254;96607;-83
2023/08/16 04:05:12;;;;;;;12.00;10.80;;;;;;;17.43;78.61;97553.15;105344;1253;96796;-84
2023/08/16 04:07:40;;;;;;;12.50;10.70;;;;;;;17.43;78.78;97553.20;105000;1259;100814;-81
2023/08/16 04:10:07;;;;;;;13.30;11.20;;;;;;;17.43;78.59;97561.33;105106;1256;97147;-81
2023/08/16 04:12:33;;;;;;;13.90;11.10;;;;;;;17.42;78.65;97563.08;105234;1262;97326;-82
2023/08/16 04:15:00;;;;;;;15.30;11.20;;;;;;;17.44;78.72;97571.92;105156;1275;97346;-82
2023/08/16 04:17:26;;;;;;;11.80;10.70;;;;;;;17.39;78.79;97578.91;105176;1256;96562;-83
2023/08/16 04:19:52;;;;;;;12.80;10.80;;;;;;;17.35;78.83;97585.29;105123;1253;96539;-82
2023/08/16 04:22:18;;;;;;;12.30;10.90;;;;;;;17.35;78.82;97589.05;105160;1266;96479;-82
2023/08/16 04:24:45;;;;;;;13.40;11.20;;;;;;;17.37;78.92;97587.29;105169;1256;96549;-81
2023/08/16 04:27:12;;;;;;;13.70;11.50;;;;;;;17.38;79.02;97586.32;105253;1256;97455;-83
2023/08/16 04:29:38;;;;;;;15.60;12.30;;;;;;;17.40;78.99;97588.73;105251;1251;96767;-80
2023/08/16 04:32:05;;;;;;;12.80;11.50;;;;;;;17.40;79.25;97589.23;105121;1263;97184;-81
2023/08/16 04:34:31;;;;;;;13.10;11.60;;;;;;;17.42;79.25;97592.05;105198;1256;96541;-81
2023/08/16 04:36:58;;;;;;;15.50;12.10;;;;;;;17.44;79.40;97592.83;105144;1255;97897;-82
2023/08/16 04:39:24;;;;;;;13.50;12.00;;;;;;;17.46;79.31;97587.70;105049;1256;97183;-81
2023/08/16 04:41:50;;;;;;;13.60;12.30;;;;;;;17.49;79.57;97590.58;105020;1255;97152;-83
2023/08/16 04:44:17;;;;;;;17.90;13.50;;;;;;;17.51;79.58;97591.42;105067;1251;97764;-82
2023/08/16 04:46:43;;;;;;;15.30;12.50;;;;;;;17.55;79.56;97589.89;105312;1256;96622;-80
2023/08/16 04:49:09;;;;;;;19.20;13.60;;;;;;;17.58;79.56;97594.30;105104;1256;97174;-81
2023/08/16 04:51:35;;;;;;;15.70;13.00;;;;;;;17.62;79.90;97595.14;105214;1266;96498;-83
2023/08/16 04:54:02;;;;;;;16.30;12.80;;;;;;;17.63;79.82;97595.43;105198;1256;97734;-81
2023/08/16 04:56:28;;;;;;;14.80;13.30;;;;;;;17.67;79.91;97599.09;105154;1259;96760;-81
2023/08/16 04:58:54;;;;;;;15.60;13.50;;;;;;;17.71;79.90;97597.24;105063;1255;97277;-82
2023/08/16 05:01:21;;;;;;;15.20;13.60;;;;;;;17.74;79.87;97594.89;105199;1256;97209;-82
2023/08/16 05:03:50;;;;;;;17.40;15.00;;;;;;;17.77;80.11;97594.64;105130;1251;97462;-83
2023/08/16 05:06:16;;;;;;;22.90;15.20;;;;;;;17.83;80.04;97591.77;105303;1253;96626;-82
2023/08/16 05:08:43;;;;;;;17.40;14.60;;;;;;;17.87;80.08;97590.35;105177;1275;96543;-81
2023/08/16 05:11:09;;;;;;;20.80;16.50;;;;;;;17.91;80.22;97595.31;105107;1271;97199;-82
2023/08/16 05:13:36;;;;;;;18.40;16.40;;;;;;;17.95;80.24;97599.32;105158;1252;102784;-81
2023/08/16 05:16:02;;;;;;;25.60;16.00;;;;;;;18.00;80.20;97601.34;105200;1266;96637;-82
2023/08/16 05:18:28;;;;;;;22.80;16.70;;;;;;;18.06;79.91;97603.21;105040;1256;96556;-80
2023/08/16 05:21:00;;;;;;;21.60;17.10;;;;;;;18.12;80.13;97603.99;105307;1254;96733;-83
2023/08/16 05:23:27;;;;;;;22.90;16.80;;;;;;;18.18;80.13;97598.23;105240;1256;101274;-81
2023/08/16 05:25:53;;;;;;;33.70;21.80;;;;;;;18.23;80.21;97596.69;105161;1255;97748;-82
2023/08/16 05:28:19;;;;;;;27.40;20.00;;;;;;;18.27;80.20;97595.01;105143;1266;96568;-84
2023/08/16 05:30:45;;;;;;;28.60;21.60;;;;;;;18.33;80.13;97594.03;105363;1256;96551;-81
2023/08/16 05:33:12;;;;;;;28.80;20.20;;;;;;;18.39;80.18;97593.55;105221;1256;102921;-80
2023/08/16 05:35:38;;;;;;;33.30;19.80;;;;;;;18.45;80.12;97596.96;105147;1253;97741;-82
2023/08/16 05:38:05;;;;;;;31.30;20.20;;;;;;;18.51;80.30;97593.96;105210;1257;96599;-80
2023/08/16 05:40:32;;;;;;;22.60;18.30;;;;;;;18.59;80.41;97587.92;105027;1261;96968;-81
2023/08/16 05:42:58;;;;;;;19.70;15.10;;;;;;;18.66;80.14;97580.90;105298;1265;103282;-81
2023/08/16 05:45:26;;;;;;;22.10;15.30;;;;;;;18.73;80.19;97575.29;105113;1255;96583;-80
2023/08/16 05:47:54;;;;;;;24.50;18.40;;;;;;;18.78;80.15;97570.70;105145;1256;98922;-80
2023/08/16 05:50:21;;;;;;;26.60;18.30;;;;;;;18.88;79.97;97568.58;105151;1256;96627;-81
2023/08/16 05:52:47;;;;;;;27.10;17.90;;;;;;;18.93;79.80;97564.15;105411;1266;96726;-83
2023/08/16 05:55:14;;;;;;;22.10;18.00;;;;;;;19.00;79.94;97561.73;105376;1255;97445;-80
2023/08/16 05:57:40;;;;;;;22.00;17.60;;;;;;;19.07;79.88;97566.11;105305;1256;97527;-81
2023/08/16 06:00:07;;;;;;;25.20;16.80;;;;;;;19.15;79.80;97568.91;105079;1256;96555;-80
2023/08/16 06:02:33;;;;;;;19.70;15.50;;;;;;;19.23;79.66;97572.04;105214;1256;97209;-81
2023/08/16 06:05:00;;;;;;;21.00;15.90;;;;;;;19.30;79.76;97569.96;105171;1266;97057;-81
2023/08/16 06:07:26;;;;;;;18.90;15.50;;;;;;;19.36;79.58;97566.11;105223;1256;97448;-82
2023/08/16 06:09:53;;;;;;;24.60;15.60;;;;;;;19.44;79.51;97567.58;105356;1256;97764;-81
2023/08/16 06:12:19;;;;;;;18.00;14.50;;;;;;;19.51;79.52;97571.00;105200;1274;96549;-82
2023/08/16 06:14:46;;;;;;;19.30;15.00;;;;;;;19.58;79.51;97576.73;105088;1256;97954;-83
2023/08/16 06:17:12;;;;;;;22.40;16.20;;;;;;;19.65;79.69;97575.95;105171;1255;96555;-80
2023/08/16 06:19:38;;;;;;;19.30;13.90;;;;;;;19.73;79.72;97576.11;105193;1274;96562;-81
2023/08/16 06:22:05;;;;;;;19.50;14.70;;;;;;;19.81;79.92;97578.56;105159;1266;96546;-81
2023/08/16 06:24:34;;;;;;;16.90;13.90;;;;;;;19.89;79.70;97577.30;105263;1251;96609;-81
2023/08/16 06:27:01;;;;;;;14.00;12.50;;;;;;;19.98;79.49;97573.88;105136;1256;96475;-82
2023/08/16 06:29:27;;;;;;;17.90;13.20;;;;;;;20.06;79.35;97571.72;105156;1256;97576;-80
2023/08/16 06:31:55;;;;;;;15.10;13.40;;;;;;;20.17;79.19;97571.91;105519;1268;96644;-81
2023/08/16 06:34:21;;;;;;;17.00;12.90;;;;;;;20.27;78.97;97567.95;105523;1256;96620;-80
2023/08/16 06:36:48;;;;;;;16.40;13.00;;;;;;;20.36;78.84;97566.27;105757;1256;116453;-83
2023/08/16 06:39:14;;;;;;;16.30;12.40;;;;;;;20.45;78.75;97570.45;105298;1256;100672;-81
2023/08/16 06:41:40;;;;;;;13.10;11.80;;;;;;;20.54;78.66;97570.63;105370;1256;96648;-81
2023/08/16 06:44:07;;;;;;;16.10;12.10;;;;;;;20.63;78.38;97571.21;105086;1263;97864;-79
2023/08/16 06:46:33;;;;;;;13.90;11.70;;;;;;;20.72;78.16;97571.60;105212;1257;97831;-82
2023/08/16 06:49:00;;;;;;;13.40;12.20;;;;;;;20.82;78.15;97571.06;105164;1265;100671;-81
2023/08/16 06:51:27;;;;;;;15.10;13.40;;;;;;;20.93;78.05;97571.30;105496;1256;97859;-80
2023/08/16 06:53:53;;;;;;;18.20;13.50;;;;;;;21.03;77.79;97568.93;105396;1261;97900;-82
2023/08/16 06:56:19;;;;;;;13.00;11.60;;;;;;;21.13;77.68;97570.76;105150;1256;97843;-82
2023/08/16 06:58:46;;;;;;;14.50;11.60;;;;;;;21.26;77.40;97570.77;105165;1257;100753;-81
2023/08/16 07:01:12;;;;;;;11.90;10.80;;;;;;;21.36;77.43;97573.77;105448;1266;96590;-79
2023/08/16 07:03:38;;;;;;;14.50;11.00;;;;;;;21.49;76.90;97567.83;105387;1264;96538;-80
2023/08/16 07:06:05;;;;;;;11.30;10.20;;;;;;;21.63;76.40;97564.55;105505;1264;96592;-80
2023/08/16 07:08:31;;;;;;;12.20;11.00;;;;;;;21.74;76.54;97558.21;105429;1267;100724;-80
2023/08/16 07:10:57;;;;;;;14.30;11.50;;;;;;;21.86;76.36;97554.16;105084;1267;96537;-81
2023/08/16 07:13:23;;;;;;;12.00;10.50;;;;;;;21.97;75.52;97548.42;105261;1256;96542;-81
2023/08/16 07:15:50;;;;;;;13.20;11.00;;;;;;;22.10;75.12;97549.70;105211;1256;97464;-81
2023/08/16 07:18:16;;;;;;;13.70;11.00;;;;;;;22.21;75.02;97547.89;105352;1256;101050;-80
2023/08/16 07:52:24;;;;;;;10.20;8.40;;;;;;;24.77;71.54;97563.55;99275;1262;96696;-82
2023/08/16 07:54:50;;;;;;;15.30;8.20;;;;;;;25.40;70.42;97561.84;103897;1273;97019;-81
2023/08/16 07:57:57;;;;;;;9.60;8.30;;;;;;;25.94;69.76;97560.09;103828;1273;98081;-81
2023/08/16 08:00:46;;;;;;;8.50;7.60;;;;;;;26.58;67.89;97551.80;103082;1280;111218;-82
2023/08/16 08:03:32;;;;;;;12.10;7.40;;;;;;;27.05;66.44;97558.98;103116;1290;99958;-81
2023/08/16 08:06:37;;;;;;;9.10;7.10;;;;;;;27.54;65.50;97563.48;103141;1280;97119;-82
2023/08/16 08:09:08;;;;;;;8.80;7.50;;;;;;;28.01;63.98;97566.53;103172;1281;97145;-82
2023/08/16 08:11:37;;;;;;;10.50;8.00;;;;;;;28.39;62.81;97561.13;103313;1280;102505;-85
2023/08/16 08:14:06;;;;;;;11.00;8.30;;;;;;;28.68;61.59;97559.52;103203;1290;100376;-87
2023/08/16 08:16:46;;;;;;;9.10;7.70;;;;;;;28.96;60.65;97560.59;103270;1282;98977;-83
2023/08/16 08:19:12;;;;;;;14.40;9.80;;;;;;;29.22;59.87;97563.39;103306;1290;96747;-85
2023/08/16 08:21:48;;;;;;;10.40;8.40;;;;;;;29.31;58.88;97563.15;102851;1285;96774;-84
2023/08/16 08:24:15;;;;;;;11.00;7.20;;;;;;;29.16;58.39;97564.54;102780;1296;100956;-88
2023/08/16 08:26:43;;;;;;;8.50;7.60;;;;;;;29.03;58.49;97563.34;102663;1282;97874;-85
2023/08/16 08:29:20;;;;;;;8.30;7.40;;;;;;;28.99;58.63;97554.86;102399;1284;99117;-91
2023/08/16 08:31:49;;;;;;;13.70;7.20;;;;;;;29.16;58.47;97556.69;102738;1282;97275;-87
2023/08/16 08:34:16;;;;;;;11.30;7.50;;;;;;;29.27;57.98;97560.27;103170;1279;98184;-79
2023/08/16 08:37:03;;;;;;;10.60;7.00;;;;;;;29.36;57.09;97564.65;102915;1285;97069;-78
2023/08/16 08:39:30;;;;;;;9.30;6.90;;;;;;;29.28;56.93;97555.08;103503;1276;100578;-80
2023/08/16 08:42:17;;;;;;;8.10;6.60;;;;;;;29.15;57.79;97550.73;103417;1279;96819;-78
2023/08/16 08:44:44;;;;;;;8.70;7.00;;;;;;;29.26;58.19;97546.52;103109;1279;96692;-78
2023/08/16 08:47:11;;;;;;;7.70;6.60;;;;;;;29.43;58.17;97548.80;102825;1286;97157;-81
2023/08/16 08:49:39;;;;;;;9.50;7.30;;;;;;;29.55;57.12;97551.00;102754;1298;97832;-86
2023/08/16 08:52:06;;;;;;;7.60;6.90;;;;;;;29.62;56.80;97549.92;102708;1287;100498;-86
2023/08/16 08:54:32;;;;;;;10.00;6.20;;;;;;;29.99;56.93;97553.59;102960;1293;97422;-85
2023/08/16 08:56:59;;;;;;;8.50;6.50;;;;;;;30.40;56.19;97552.45;103168;1280;96622;-86
2023/08/16 08:59:27;;;;;;;6.30;5.70;;;;;;;30.84;54.89;97558.67;102786;1285;97611;-86
2023/08/16 09:01:54;;;;;;;8.40;6.70;;;;;;;31.21;53.99;97563.58;102427;1288;97331;-85
2023/08/16 09:04:22;;;;;;;6.70;6.10;;;;;;;31.44;53.35;97562.94;102454;1288;96761;-85
2023/08/16 09:06:49;;;;;;;8.60;6.00;;;;;;;31.66;51.86;97564.54;102345;1285;97460;-89
2023/08/16 09:09:15;;;;;;;6.90;6.10;;;;;;;31.93;50.97;97565.55;102570;1288;97439;-88
2023/08/16 09:11:42;;;;;;;9.30;5.90;;;;;;;32.19;50.00;97563.76;102405;1291;101453;-87
2023/08/16 09:14:09;;;;;;;7.20;6.30;;;;;;;32.39;49.41;97554.86;102457;1287;97462;-85
2023/08/16 09:16:36;;;;;;;8.30;5.90;;;;;;;32.41;47.34;97544.39;102766;1285;97246;-87
2023/08/16 09:19:13;;;;;;;6.30;5.70;;;;;;;32.25;47.06;97539.16;102448;1282;97852;-86
2023/08/16 09:21:43;;;;;;;6.70;6.10;;;;;;;32.22;48.24;97540.09;102493;1284;97280;-86
2023/08/16 09:24:10;;;;;;;6.40;5.90;;;;;;;32.24;48.26;97540.15;103075;1282;101089;-87
2023/08/16 09:26:37;;;;;;;7.90;6.70;;;;;;;32.19;48.39;97542.45;103000;1286;96920;-86
2023/08/16 09:29:06;;;;;;;9.40;6.80;;;;;;;32.06;48.76;97540.08;102940;1279;97438;-78
2023/08/16 09:31:41;;;;;;;10.90;7.50;;;;;;;31.81;49.13;97542.61;103089;1285;97000;-79
2023/08/16 09:34:08;;;;;;;8.20;6.70;;;;;;;31.58;49.54;97539.76;103377;1281;97337;-79
2023/08/16 09:36:41;;;;;;;7.90;7.10;;;;;;;31.46;50.43;97538.61;103440;1292;97883;-80
2023/08/16 09:39:12;;;;;;;8.10;6.10;;;;;;;31.44;49.76;97531.86;103440;1280;100629;-82
2023/08/16 09:41:49;;;;;;;6.90;6.10;;;;;;;31.55;49.47;97526.48;103400;1279;100010;-83
2023/08/16 09:44:27;;;;;;;8.30;6.00;;;;;;;31.61;48.42;97528.55;103459;1280;97912;-78
2023/08/16 09:46:58;;;;;;;7.20;5.50;;;;;;;31.46;48.05;97533.02;103344;1283;97130;-85
2023/08/16 09:49:25;;;;;;;6.70;5.70;;;;;;;31.32;48.60;97533.40;103079;1284;101267;-86
2023/08/16 09:51:57;;;;;;;7.70;6.00;;;;;;;31.17;48.83;97534.06;103270;1280;97790;-78
2023/08/16 09:54:27;;;;;;;10.40;5.80;;;;;;;31.01;49.19;97528.51;103453;1276;98943;-78
2023/08/16 09:56:54;;;;;;;8.00;6.50;;;;;;;30.88;50.64;97528.97;103815;1275;97135;-80
2023/08/16 09:59:22;;;;;;;7.10;6.40;;;;;;;30.77;50.78;97529.16;103953;1273;96633;-78
2023/08/16 10:01:51;;;;;;;6.90;6.00;;;;;;;30.67;50.02;97528.05;103915;1270;98211;-83
2023/08/16 10:04:28;;;;;;;7.70;5.80;;;;;;;30.52;50.61;97528.89;103833;1268;100468;-80
2023/08/16 10:06:59;;;;;;;7.10;6.40;;;;;;;30.40;50.91;97527.21;103923;1270;99350;-87
2023/08/16 10:09:26;;;;;;;10.50;6.60;;;;;;;30.31;51.34;97531.54;104014;1270;96695;-82
2023/08/16 10:11:54;;;;;;;7.00;5.90;;;;;;;30.23;51.12;97535.34;103647;1270;96887;-82
2023/08/16 10:14:30;;;;;;;9.40;6.20;;;;;;;30.14;51.40;97538.17;103895;1271;101263;-82
2023/08/16 10:17:06;;;;;;;10.10;6.60;;;;;;;30.06;51.25;97538.64;103802;1270;100388;-81
2023/08/16 10:19:34;;;;;;;9.50;6.90;;;;;;;30.02;51.47;97538.30;103855;1284;99496;-82
2023/08/16 10:22:16;;;;;;;11.50;7.90;;;;;;;30.03;52.31;97538.83;103947;1271;97933;-82
2023/08/16 10:24:45;;;;;;;16.20;11.60;;;;;;;30.11;52.99;97540.12;103953;1271;97918;-82
2023/08/16 10:27:33;;;;;;;29.10;19.00;;;;;;;30.15;52.52;97540.30;104169;1272;101348;-89
2023/08/16 10:30:03;;;;;;;23.70;15.60;;;;;;;30.19;52.41;97532.80;104048;1272;100420;-82
2023/08/16 10:32:29;;;;;;;20.20;13.10;;;;;;;30.21;52.41;97531.35;104201;1270;99061;-80
2023/08/16 10:35:18;;;;;;;16.00;9.90;;;;;;;30.17;52.20;97531.23;104147;1271;97561;-79
2023/08/16 10:37:58;;;;;;;10.70;8.30;;;;;;;30.13;52.38;97527.30;104063;1268;172305;-79
2023/08/16 10:40:30;;;;;;;8.90;7.20;;;;;;;30.17;52.20;97527.15;104258;1265;102194;-79
2023/08/16 10:42:59;;;;;;;;;;;;;;;30.26;52.16;97524.72;104253;1271;100392;-79
2023/08/16 10:45:34;;;;;;;10.50;7.40;;;;;;;30.29;51.68;97518.65;104312;1270;98747;-78
2023/08/16 10:48:38;;;;;;;12.50;7.90;;;;;;;30.35;51.46;97516.18;104013;1270;96637;-83
2023/08/16 10:51:08;;;;;;;8.30;6.80;;;;;;;30.49;51.26;97516.30;103441;1292;98202;-85
2023/08/16 10:53:39;;;;;;;9.90;7.40;;;;;;;30.65;51.47;97519.05;103305;1279;102707;-82
2023/08/16 10:56:08;;;;;;;10.50;8.50;;;;;;;30.86;51.55;97515.64;103453;1279;101214;-82
2023/08/16 10:58:49;;;;;;;12.20;8.90;;;;;;;31.04;51.02;97515.22;103291;1274;99223;-83
2023/08/16 11:01:17;;;;;;;14.10;9.10;;;;;;;31.07;49.69;97517.10;103489;1280;97590;-83
2023/08/16 11:04:04;;;;;;;8.70;6.90;;;;;;;31.07;49.67;97514.45;103588;1280;98496;-81
2023/08/16 11:06:52;;;;;;;8.00;7.10;;;;;;;31.19;49.98;97513.64;103507;1279;101557;-84
2023/08/16 11:09:21;;;;;;;8.90;7.10;;;;;;;31.30;49.15;97509.75;103523;1290;100349;-85
2023/08/16 11:11:48;;;;;;;11.20;7.70;;;;;;;31.44;48.99;97505.70;103538;1276;99053;-85
2023/08/16 11:14:15;;;;;;;10.40;6.50;;;;;;;31.60;48.76;97503.27;103385;1281;97361;-84
2023/08/16 11:16:42;;;;;;;10.20;6.10;;;;;;;31.74;48.23;97501.77;103761;1273;96759;-86
2023/08/16 11:19:10;;;;;;;6.60;5.90;;;;;;;31.90;48.42;97504.36;103611;1280;96660;-85
2023/08/16 11:21:38;;;;;;;7.40;6.20;;;;;;;32.05;48.42;97501.61;103831;1277;97422;-85
2023/08/16 11:24:09;;;;;;;7.10;6.20;;;;;;;32.19;47.68;97504.08;103821;1277;96800;-85
2023/08/16 11:26:39;;;;;;;6.10;5.50;;;;;;;32.27;47.27;97498.98;103889;1279;98450;-85
2023/08/16 11:29:06;;;;;;;14.30;6.20;;;;;;;32.33;47.39;97497.28;103585;1279;98021;-85
2023/08/16 11:31:36;;;;;;;9.60;6.80;;;;;;;32.45;47.51;97497.42;103633;1279;96868;-85
2023/08/16 11:34:09;;;;;;;9.00;7.20;;;;;;;32.56;47.14;97496.87;102948;1280;100391;-88
2023/08/16 11:36:39;;;;;;;7.10;6.40;;;;;;;32.62;46.84;97498.09;102980;1279;98720;-86
2023/08/16 11:39:08;;;;;;;6.60;5.90;;;;;;;32.71;46.68;97502.38;102823;1288;96684;-85
2023/08/16 11:41:36;;;;;;;7.60;6.40;;;;;;;32.80;45.87;97507.84;102889;1287;98020;-85
2023/08/16 11:44:03;;;;;;;12.20;5.90;;;;;;;32.85;46.06;97500.41;102984;1283;101218;-84
2023/08/16 11:46:40;;;;;;;9.50;6.10;;;;;;;32.92;44.95;97492.80;102931;1280;97957;-87
2023/08/16 11:49:08;;;;;;;7.20;6.00;;;;;;;32.96;44.36;97491.73;102883;1281;98122;-86
2023/08/16 11:51:38;;;;;;;10.50;6.50;;;;;;;33.00;44.99;97491.41;102896;1282;97629;-86
2023/08/16 11:54:06;;;;;;;7.00;5.70;;;;;;;32.99;44.60;97494.44;102964;1283;96667;-82